Time;durP1;ratioP1;P1;durP2;ratioP2;P2;SDS_P1;SDS_P2;PMS_P1;PMS_P2;Temp;Humidity;BMP_temperature;BMP_pressure;BME280_temperature;BME280_humidity;BME280_pressure;Samples;Min_cycle;Max_cycle;Signal;HPM_P1;HPM_P2
2022/03/09 00:00:08;;;;;;;7.18;4.20;;;4.00;63.90;;;;;;4923175;28;20047;-68
2022/03/09 00:02:34;;;;;;;4.82;3.50;;;4.00;64.00;;;;;;4915409;28;20150;-68
2022/03/09 00:05:01;;;;;;;12.57;3.90;;;3.90;64.00;;;;;;4926056;28;20046;-68
2022/03/09 00:07:27;;;;;;;6.80;3.40;;;3.90;64.10;;;;;;4931841;28;20055;-68
2022/03/09 00:09:54;;;;;;;7.03;3.78;;;3.90;64.30;;;;;;4906184;28;20047;-68
2022/03/09 00:12:20;;;;;;;6.43;3.83;;;3.90;64.60;;;;;;4932420;28;20379;-68
2022/03/09 00:14:46;;;;;;;5.85;3.70;;;3.90;64.60;;;;;;4930150;28;20044;-68
2022/03/09 00:17:13;;;;;;;5.75;3.80;;;3.80;64.50;;;;;;4914985;28;20127;-69
2022/03/09 00:19:39;;;;;;;5.20;3.90;;;3.80;64.50;;;;;;4934378;28;20093;-69
2022/03/09 00:22:05;;;;;;;6.05;3.80;;;3.80;64.60;;;;;;4920588;28;20051;-68
2022/03/09 00:24:32;;;;;;;5.03;3.88;;;3.80;64.70;;;;;;4906780;28;20094;-68
2022/03/09 00:26:59;;;;;;;5.53;3.72;;;3.80;64.90;;;;;;4921026;28;20055;-69
2022/03/09 00:29:26;;;;;;;7.80;4.10;;;3.70;64.90;;;;;;4934491;28;20458;-68
2022/03/09 00:31:52;;;;;;;7.18;4.00;;;3.80;65.00;;;;;;4926404;28;20058;-68
2022/03/09 00:34:18;;;;;;;6.38;4.13;;;3.70;65.00;;;;;;4919103;28;20047;-68
2022/03/09 00:36:45;;;;;;;6.05;4.07;;;3.70;65.80;;;;;;4933760;28;20130;-68
2022/03/09 00:39:11;;;;;;;8.10;3.80;;;3.60;65.30;;;;;;4920041;28;20043;-68
2022/03/09 00:41:37;;;;;;;7.28;3.85;;;3.60;65.30;;;;;;4932217;28;20077;-68
2022/03/09 00:44:04;;;;;;;6.20;4.22;;;3.60;65.40;;;;;;4935234;28;20063;-68
2022/03/09 00:46:29;;;;;;;6.28;4.07;;;3.60;65.50;;;;;;4917827;28;20111;-68
2022/03/09 00:48:55;;;;;;;7.05;4.35;;;3.50;65.60;;;;;;4934624;28;20054;-68
2022/03/09 00:51:22;;;;;;;6.70;4.32;;;3.50;65.60;;;;;;4932271;28;20705;-68
2022/03/09 00:53:48;;;;;;;6.78;4.55;;;3.50;65.70;;;;;;4916840;28;20043;-68
2022/03/09 00:56:14;;;;;;;6.32;4.40;;;3.50;65.80;;;;;;4917362;28;20086;-68
2022/03/09 00:58:41;;;;;;;7.57;4.65;;;3.50;65.90;;;;;;4936936;28;20141;-68
2022/03/09 01:01:08;;;;;;;7.55;4.45;;;3.40;66.00;;;;;;4931363;28;20121;-68
2022/03/09 01:03:34;;;;;;;7.35;4.38;;;3.40;66.00;;;;;;4952122;28;20489;-68
2022/03/09 01:06:00;;;;;;;6.70;4.07;;;3.40;66.20;;;;;;4933675;28;20062;-68
2022/03/09 01:08:26;;;;;;;5.63;4.00;;;3.40;66.20;;;;;;4935572;28;20043;-68
2022/03/09 01:10:52;;;;;;;5.68;4.20;;;3.40;66.20;;;;;;4933974;28;20047;-68
2022/03/09 01:13:17;;;;;;;8.23;4.75;;;3.40;66.30;;;;;;4934748;28;20059;-68
2022/03/09 01:15:43;;;;;;;7.00;4.40;;;3.30;66.30;;;;;;4927900;28;20055;-68
2022/03/09 01:18:09;;;;;;;6.95;4.85;;;3.40;66.50;;;;;;4935126;28;20406;-68
2022/03/09 01:20:35;;;;;;;8.07;4.60;;;3.30;66.50;;;;;;4919770;28;20658;-68
2022/03/09 01:23:01;;;;;;;8.05;4.55;;;3.30;66.60;;;;;;4932921;28;20051;-68
2022/03/09 01:25:27;;;;;;;6.88;4.75;;;3.30;66.70;;;;;;4917182;28;20122;-68
2022/03/09 01:27:53;;;;;;;7.70;4.78;;;3.20;66.80;;;;;;4919398;28;20070;-68
2022/03/09 01:30:18;;;;;;;7.22;4.50;;;3.30;66.80;;;;;;4932098;28;20066;-68
2022/03/09 01:32:44;;;;;;;7.18;4.85;;;3.20;66.80;;;;;;4947910;28;20153;-68
2022/03/09 01:35:11;;;;;;;7.30;4.75;;;3.20;66.80;;;;;;4910639;28;20129;-68
2022/03/09 01:37:36;;;;;;;7.05;4.70;;;3.20;66.90;;;;;;4934936;28;20063;-68
2022/03/09 01:40:03;;;;;;;7.38;5.05;;;3.20;66.80;;;;;;4930534;28;20142;-68
2022/03/09 01:42:29;;;;;;;7.97;4.55;;;3.20;66.90;;;;;;4933556;28;20061;-68
2022/03/09 01:45:04;;;;;;;8.05;5.20;;;3.20;66.90;;;;;;4931720;28;20140;-69
2022/03/09 01:47:29;;;;;;;7.70;4.97;;;3.20;66.90;;;;;;4917243;29;20450;-68
2022/03/09 01:49:55;;;;;;;25.27;5.05;;;3.20;66.90;;;;;;4933464;28;20885;-68
2022/03/09 01:52:21;;;;;;;8.77;5.43;;;3.30;67.00;;;;;;4933571;28;20047;-69
2022/03/09 01:54:47;;;;;;;7.45;5.00;;;3.20;67.00;;;;;;4917491;28;22116;-69
2022/03/09 01:57:13;;;;;;;8.80;5.20;;;3.10;67.00;;;;;;4901187;28;20047;-68
2022/03/09 01:59:40;;;;;;;10.65;5.35;;;3.20;67.10;;;;;;4931773;28;20122;-68
2022/03/09 02:02:05;;;;;;;8.63;5.03;;;3.10;67.10;;;;;;4943047;28;20082;-68
2022/03/09 02:04:31;;;;;;;8.40;5.40;;;3.10;67.10;;;;;;4916382;28;20424;-69
2022/03/09 02:06:57;;;;;;;9.90;5.90;;;3.20;67.20;;;;;;4903968;28;20446;-68
2022/03/09 02:09:41;;;;;;;11.05;7.20;;;3.10;67.10;;;;;;4916939;28;20122;-68
2022/03/09 02:12:12;;;;;;;12.63;7.97;;;3.10;67.10;;;;;;4919808;28;20043;-68
2022/03/09 02:14:45;;;;;;;14.52;7.07;;;3.10;67.20;;;;;;4933659;28;20047;-68
2022/03/09 02:17:16;;;;;;;;;;;3.20;67.20;;;;;;4933971;28;20070;-68
2022/03/09 02:19:44;;;;;;;13.13;7.43;;;3.10;67.10;;;;;;4918080;28;19934;-68
2022/03/09 02:22:19;;;;;;;9.48;6.32;;;3.10;67.10;;;;;;4933894;28;20166;-69
2022/03/09 02:24:46;;;;;;;9.20;6.20;;;3.10;67.20;;;;;;4932937;28;20055;-68
2022/03/09 02:27:12;;;;;;;13.50;6.10;;;3.10;67.30;;;;;;4899418;28;20417;-68
2022/03/09 02:29:38;;;;;;;10.68;6.03;;;3.10;67.30;;;;;;4932204;28;20051;-68
2022/03/09 02:32:05;;;;;;;8.10;5.60;;;3.10;67.40;;;;;;4918071;28;20043;-68
2022/03/09 02:34:31;;;;;;;11.90;5.90;;;3.10;67.50;;;;;;4933961;28;20114;-68
2022/03/09 02:36:58;;;;;;;8.18;5.30;;;2.90;67.50;;;;;;4917963;28;20059;-68
2022/03/09 02:39:24;;;;;;;9.35;6.07;;;3.00;67.90;;;;;;4916424;28;20055;-68
2022/03/09 02:41:50;;;;;;;8.45;5.55;;;3.00;67.80;;;;;;4899484;28;20875;-68
2022/03/09 02:44:16;;;;;;;8.85;5.47;;;3.00;67.90;;;;;;4918177;28;20085;-68
2022/03/09 02:46:42;;;;;;;10.10;5.60;;;3.00;68.00;;;;;;4931677;28;22683;-68
2022/03/09 02:49:07;;;;;;;10.88;5.95;;;3.00;68.10;;;;;;4932076;28;20047;-68
2022/03/09 02:51:33;;;;;;;9.18;5.80;;;2.90;68.20;;;;;;4918022;28;20054;-68
2022/03/09 02:53:59;;;;;;;10.77;6.13;;;2.90;68.30;;;;;;4919160;28;20436;-68
2022/03/09 02:56:25;;;;;;;10.68;5.75;;;2.90;68.30;;;;;;4933931;28;20394;-68
2022/03/09 02:58:51;;;;;;;10.80;6.10;;;2.80;68.40;;;;;;4914969;28;20051;-68
2022/03/09 03:01:17;;;;;;;8.20;5.60;;;2.80;68.60;;;;;;4931243;28;20469;-68
2022/03/09 03:03:44;;;;;;;9.45;5.38;;;2.80;68.60;;;;;;4919410;28;20098;-69
2022/03/09 03:06:11;;;;;;;9.65;5.80;;;2.80;68.90;;;;;;4920391;28;20093;-69
2022/03/09 03:08:40;;;;;;;8.60;5.82;;;2.70;69.00;;;;;;4916104;28;20625;-69
2022/03/09 03:11:10;;;;;;;9.52;6.35;;;2.70;69.10;;;;;;4919143;28;20079;-69
2022/03/09 03:13:41;;;;;;;9.60;6.03;;;2.70;69.30;;;;;;4931272;28;20157;-69
2022/03/09 03:16:07;;;;;;;10.10;5.68;;;2.70;69.50;;;;;;4930375;28;20040;-69
2022/03/09 03:18:34;;;;;;;7.72;5.85;;;2.60;69.60;;;;;;4931636;28;20107;-68
2022/03/09 03:21:00;;;;;;;9.27;5.88;;;2.60;69.80;;;;;;4930452;28;20043;-69
2022/03/09 03:23:28;;;;;;;7.95;5.95;;;2.60;70.00;;;;;;4931114;28;20060;-69
2022/03/09 03:25:54;;;;;;;8.95;6.15;;;2.60;70.10;;;;;;4932090;28;20513;-68
2022/03/09 03:28:21;;;;;;;9.55;6.10;;;2.60;70.20;;;;;;4947731;28;20047;-69
2022/03/09 03:30:48;;;;;;;8.98;5.85;;;2.60;70.30;;;;;;4933438;28;20075;-68
2022/03/09 03:33:15;;;;;;;9.70;6.20;;;2.50;70.40;;;;;;4908711;28;20202;-68
2022/03/09 03:35:41;;;;;;;9.45;5.82;;;2.50;70.60;;;;;;4930348;28;20122;-69
2022/03/09 03:38:08;;;;;;;9.20;6.15;;;2.50;70.70;;;;;;4947322;28;20059;-68
2022/03/09 03:40:34;;;;;;;12.95;6.45;;;2.40;70.70;;;;;;4931775;28;20110;-69
2022/03/09 03:43:00;;;;;;;10.43;6.15;;;2.40;70.80;;;;;;4907300;29;20145;-69
2022/03/09 03:45:25;;;;;;;10.25;6.22;;;2.40;70.90;;;;;;4912381;28;20502;-68
2022/03/09 03:47:52;;;;;;;8.90;6.18;;;2.50;71.00;;;;;;4930658;28;20058;-69
2022/03/09 03:50:18;;;;;;;11.05;6.95;;;2.40;71.00;;;;;;4930361;28;20054;-68
2022/03/09 03:52:44;;;;;;;9.55;5.90;;;2.50;71.10;;;;;;4934605;28;20054;-68
2022/03/09 03:55:10;;;;;;;11.10;6.00;;;2.40;71.20;;;;;;4935729;28;20494;-68
2022/03/09 03:57:36;;;;;;;11.13;6.65;;;2.40;71.10;;;;;;4916897;28;20074;-68
2022/03/09 04:00:04;;;;;;;11.75;6.50;;;2.40;71.20;;;;;;4915741;28;20090;-68
2022/03/09 04:02:30;;;;;;;9.23;6.15;;;2.40;71.30;;;;;;4919430;28;20462;-69
2022/03/09 04:04:55;;;;;;;14.82;6.82;;;2.40;71.40;;;;;;4935862;28;20076;-68
2022/03/09 04:07:21;;;;;;;9.38;6.03;;;2.40;71.30;;;;;;4919420;28;20058;-68
2022/03/09 04:09:47;;;;;;;9.70;6.20;;;2.50;71.20;;;;;;4918163;28;20485;-68
2022/03/09 04:12:13;;;;;;;10.13;6.25;;;2.50;71.10;;;;;;4952165;28;20061;-68
2022/03/09 04:14:39;;;;;;;12.35;6.18;;;2.50;71.00;;;;;;4886202;28;20047;-68
2022/03/09 04:17:04;;;;;;;9.57;6.53;;;2.50;70.90;;;;;;4934200;28;20043;-68
2022/03/09 04:19:30;;;;;;;11.43;7.00;;;2.50;70.80;;;;;;4919078;28;20051;-68
2022/03/09 04:21:56;;;;;;;9.65;6.40;;;2.50;70.90;;;;;;4921170;28;20395;-68
2022/03/09 04:24:22;;;;;;;12.45;6.13;;;2.50;70.90;;;;;;4933699;28;20055;-68
2022/03/09 04:26:48;;;;;;;9.55;6.40;;;2.50;70.90;;;;;;4935130;28;20054;-68
2022/03/09 04:29:14;;;;;;;10.93;6.45;;;2.50;71.00;;;;;;4935039;28;20117;-69
2022/03/09 04:31:40;;;;;;;9.98;6.57;;;2.50;71.00;;;;;;4916908;28;20047;-68
2022/03/09 04:34:06;;;;;;;10.02;6.47;;;2.40;71.10;;;;;;4936224;28;20051;-68
2022/03/09 04:36:32;;;;;;;10.70;6.25;;;2.40;71.20;;;;;;4929158;28;20755;-68
2022/03/09 04:38:59;;;;;;;8.77;6.50;;;2.40;71.40;;;;;;4928561;28;20517;-69
2022/03/09 04:41:25;;;;;;;10.13;6.70;;;2.30;71.60;;;;;;4916671;28;20065;-68
2022/03/09 04:43:50;;;;;;;10.18;6.20;;;2.30;71.80;;;;;;4935182;28;20047;-68
2022/03/09 04:46:16;;;;;;;10.93;6.88;;;2.30;71.90;;;;;;4899421;28;20138;-69
2022/03/09 04:48:43;;;;;;;12.95;6.47;;;2.30;72.10;;;;;;4926745;28;20055;-69
2022/03/09 04:51:10;;;;;;;12.98;7.10;;;2.20;72.30;;;;;;4918120;28;20050;-68
2022/03/09 04:53:35;;;;;;;11.32;6.70;;;2.20;72.50;;;;;;4935190;28;20047;-69
2022/03/09 04:56:01;;;;;;;13.15;6.70;;;2.10;72.70;;;;;;4934851;28;20146;-68
2022/03/09 04:58:27;;;;;;;10.70;7.18;;;2.10;72.90;;;;;;4952830;28;20081;-68
2022/03/09 05:00:53;;;;;;;11.02;6.97;;;2.10;73.00;;;;;;4924846;28;20054;-68
2022/03/09 05:03:19;;;;;;;9.18;6.30;;;2.00;73.20;;;;;;4935325;28;20062;-68
2022/03/09 05:05:45;;;;;;;10.30;6.70;;;2.00;73.40;;;;;;4935051;28;20055;-68
2022/03/09 05:08:11;;;;;;;10.75;6.63;;;2.00;73.60;;;;;;4899977;28;20043;-69
2022/03/09 05:10:37;;;;;;;9.05;6.53;;;1.90;73.80;;;;;;4917383;28;20086;-68
2022/03/09 05:13:04;;;;;;;10.90;6.85;;;1.90;73.90;;;;;;4939594;28;20121;-68
2022/03/09 05:15:30;;;;;;;11.38;7.15;;;1.90;74.00;;;;;;4886935;28;20079;-68
2022/03/09 05:17:55;;;;;;;11.70;7.22;;;1.90;74.20;;;;;;4919299;28;20122;-68
2022/03/09 05:20:22;;;;;;;9.75;6.80;;;1.90;74.30;;;;;;4917372;28;20121;-68
2022/03/09 05:22:48;;;;;;;9.13;6.57;;;1.90;74.40;;;;;;4924977;28;20779;-68
2022/03/09 05:25:15;;;;;;;9.40;6.65;;;1.90;74.70;;;;;;4909335;28;20569;-68
2022/03/09 05:27:40;;;;;;;12.90;7.10;;;1.80;74.70;;;;;;4931441;28;20047;-68
2022/03/09 05:30:09;;;;;;;10.93;7.38;;;1.90;75.40;;;;;;4934588;28;20054;-68
2022/03/09 05:32:35;;;;;;;13.20;7.20;;;1.80;74.90;;;;;;4935902;28;20047;-69
2022/03/09 05:35:02;;;;;;;10.75;7.13;;;1.80;74.90;;;;;;4935239;28;20113;-68
2022/03/09 05:37:28;;;;;;;12.93;6.90;;;1.80;75.10;;;;;;4925909;28;20212;-68
2022/03/09 05:39:55;;;;;;;22.23;7.40;;;1.80;75.00;;;;;;4933462;28;20147;-68
2022/03/09 05:42:21;;;;;;;11.02;7.32;;;1.80;75.00;;;;;;4918103;28;20135;-68
2022/03/09 05:44:47;;;;;;;12.13;6.82;;;1.80;75.00;;;;;;4927502;28;20291;-68
2022/03/09 05:47:12;;;;;;;12.57;7.22;;;1.80;75.00;;;;;;4890730;28;20170;-68
2022/03/09 05:49:38;;;;;;;10.45;7.20;;;1.80;75.00;;;;;;4932655;28;20059;-68
2022/03/09 05:52:04;;;;;;;10.98;7.10;;;1.80;75.00;;;;;;4918749;28;20047;-68
2022/03/09 05:54:30;;;;;;;14.05;7.15;;;1.80;75.10;;;;;;4911219;28;20084;-68
2022/03/09 05:56:56;;;;;;;10.85;6.93;;;1.80;75.20;;;;;;4916004;28;20083;-68
2022/03/09 05:59:22;;;;;;;12.02;7.57;;;1.80;75.20;;;;;;4933860;28;20043;-68
2022/03/09 06:01:47;;;;;;;14.35;7.75;;;1.80;75.30;;;;;;4916459;28;20059;-68
2022/03/09 06:04:13;;;;;;;13.90;7.22;;;1.70;75.30;;;;;;4917974;28;20446;-68
2022/03/09 06:06:39;;;;;;;11.02;7.10;;;1.70;75.30;;;;;;4918356;28;20133;-68
2022/03/09 06:09:05;;;;;;;11.60;7.03;;;1.70;75.30;;;;;;4933947;28;20187;-68
2022/03/09 06:11:31;;;;;;;13.05;7.65;;;1.70;75.30;;;;;;4918775;29;20125;-68
2022/03/09 06:13:56;;;;;;;11.65;7.20;;;1.80;75.30;;;;;;4935363;28;20055;-69
2022/03/09 06:16:22;;;;;;;15.15;7.25;;;1.80;75.30;;;;;;4903273;28;20083;-69
2022/03/09 06:18:49;;;;;;;11.27;7.53;;;1.70;75.30;;;;;;4935303;28;20113;-68
2022/03/09 06:21:14;;;;;;;14.50;7.97;;;1.80;75.30;;;;;;4932661;28;20061;-68
2022/03/09 06:23:41;;;;;;;10.65;6.72;;;1.80;75.30;;;;;;4930494;28;20047;-68
2022/03/09 06:26:07;;;;;;;12.93;7.15;;;1.80;75.30;;;;;;4927180;28;20133;-69
2022/03/09 06:28:33;;;;;;;11.80;7.55;;;1.80;75.30;;;;;;4912766;28;20409;-68
2022/03/09 06:30:59;;;;;;;12.93;7.13;;;1.70;75.30;;;;;;4880126;28;20054;-68
2022/03/09 06:33:26;;;;;;;11.85;7.13;;;1.80;75.40;;;;;;4914376;28;20051;-68
2022/03/09 06:35:52;;;;;;;13.60;7.28;;;1.80;75.30;;;;;;4929410;28;20536;-69
2022/03/09 06:38:18;;;;;;;12.43;7.38;;;1.80;75.30;;;;;;4923927;28;20059;-68
2022/03/09 06:40:44;;;;;;;15.45;8.15;;;1.80;75.10;;;;;;4915955;28;20446;-69
2022/03/09 06:43:10;;;;;;;12.68;7.30;;;1.80;75.10;;;;;;4917230;28;20058;-68
2022/03/09 06:45:36;;;;;;;11.88;7.75;;;1.90;75.10;;;;;;4917170;28;20110;-68
2022/03/09 06:48:02;;;;;;;14.25;7.50;;;1.90;75.00;;;;;;4936575;28;20967;-69
2022/03/09 06:50:29;;;;;;;13.30;7.80;;;1.90;74.80;;;;;;4931186;28;20051;-68
2022/03/09 06:52:55;;;;;;;11.50;7.28;;;1.90;74.70;;;;;;4928034;28;20051;-68
2022/03/09 06:55:22;;;;;;;10.90;7.43;;;2.00;74.70;;;;;;4931959;28;20510;-68
2022/03/09 06:57:48;;;;;;;21.88;7.80;;;2.00;74.50;;;;;;4920628;28;20047;-68
2022/03/09 07:00:14;;;;;;;15.48;7.53;;;2.10;75.10;;;;;;4930668;28;20565;-68
2022/03/09 07:02:42;;;;;;;15.63;7.28;;;2.10;74.30;;;;;;4927244;28;20062;-68
2022/03/09 07:05:08;;;;;;;14.27;7.85;;;2.10;74.30;;;;;;4928314;28;20054;-68
2022/03/09 07:07:34;;;;;;;14.82;7.57;;;2.20;74.30;;;;;;4902310;28;20506;-68
2022/03/09 07:10:00;;;;;;;13.23;8.07;;;2.20;74.30;;;;;;4911574;28;20053;-68
2022/03/09 07:12:26;;;;;;;12.88;7.18;;;2.20;74.20;;;;;;4914990;28;21092;-68
2022/03/09 07:14:52;;;;;;;10.75;7.25;;;2.20;74.00;;;;;;4933194;28;20130;-68
2022/03/09 07:17:18;;;;;;;13.23;7.65;;;2.30;73.90;;;;;;4933080;28;20430;-68
2022/03/09 07:19:44;;;;;;;12.82;7.50;;;2.40;73.90;;;;;;4914764;28;21579;-68
2022/03/09 07:22:10;;;;;;;15.05;8.05;;;2.40;73.80;;;;;;4913855;28;20454;-68
2022/03/09 07:24:36;;;;;;;12.80;7.20;;;2.50;73.70;;;;;;4911080;28;20567;-68
2022/03/09 07:27:02;;;;;;;18.67;7.85;;;2.50;73.70;;;;;;4931355;28;20074;-68
2022/03/09 07:29:28;;;;;;;14.18;7.43;;;2.40;73.70;;;;;;4939067;28;20043;-68
2022/03/09 07:31:54;;;;;;;12.27;7.35;;;2.50;73.80;;;;;;4917748;28;20047;-68
2022/03/09 07:34:23;;;;;;;12.25;7.55;;;2.50;73.80;;;;;;4914823;28;20217;-68
2022/03/09 07:36:50;;;;;;;12.40;7.03;;;2.50;73.60;;;;;;4899866;28;20242;-68
2022/03/09 07:39:16;;;;;;;13.13;7.18;;;2.50;73.50;;;;;;4913907;28;20070;-68
2022/03/09 07:41:42;;;;;;;13.18;8.10;;;2.70;73.60;;;;;;4889441;29;20339;-68
2022/03/09 07:44:09;;;;;;;13.30;7.75;;;2.60;73.70;;;;;;4902411;28;20383;-69
2022/03/09 07:46:35;;;;;;;16.42;7.63;;;2.70;73.60;;;;;;4928971;28;20106;-68
2022/03/09 07:49:01;;;;;;;11.27;7.70;;;2.70;73.50;;;;;;4894887;28;20134;-68
2022/03/09 07:51:27;;;;;;;12.90;7.13;;;2.70;73.40;;;;;;4922853;28;20050;-69
2022/03/09 07:53:53;;;;;;;15.02;7.47;;;2.80;73.70;;;;;;4909151;28;20043;-68
2022/03/09 07:56:18;;;;;;;9.98;7.47;;;2.90;73.00;;;;;;4914057;28;20052;-68
2022/03/09 07:58:44;;;;;;;10.65;7.13;;;2.90;72.70;;;;;;4898540;28;20142;-68
2022/03/09 08:01:10;;;;;;;15.80;7.72;;;3.00;72.60;;;;;;4923120;28;20047;-68
2022/03/09 08:03:36;;;;;;;12.23;7.50;;;3.10;72.40;;;;;;4903278;28;20047;-68
2022/03/09 08:06:01;;;;;;;13.68;7.55;;;3.10;72.10;;;;;;4930794;28;20505;-69
2022/03/09 08:08:28;;;;;;;12.68;7.32;;;3.20;71.90;;;;;;4947709;28;20153;-68
2022/03/09 08:10:54;;;;;;;12.50;7.60;;;3.30;71.70;;;;;;4929051;28;24183;-69
2022/03/09 08:13:20;;;;;;;14.32;7.60;;;3.30;71.60;;;;;;4921952;28;20055;-68
2022/03/09 08:15:46;;;;;;;10.15;7.00;;;3.40;71.40;;;;;;4927300;28;20943;-68
2022/03/09 08:18:12;;;;;;;11.90;7.30;;;3.50;71.20;;;;;;4911897;28;20094;-68
2022/03/09 08:20:38;;;;;;;13.77;7.47;;;3.60;71.00;;;;;;4903959;28;20051;-69
2022/03/09 08:23:04;;;;;;;13.95;7.80;;;3.70;70.80;;;;;;4930681;28;20051;-68
2022/03/09 08:25:30;;;;;;;17.83;7.80;;;3.80;70.80;;;;;;4896053;28;20055;-68
2022/03/09 08:27:57;;;;;;;12.45;7.40;;;3.90;70.60;;;;;;4913548;28;20458;-68
2022/03/09 08:30:23;;;;;;;12.57;6.97;;;4.10;70.50;;;;;;4911824;28;20520;-69
2022/03/09 08:32:49;;;;;;;10.48;6.97;;;4.20;70.20;;;;;;4912754;28;20051;-68
2022/03/09 08:35:15;;;;;;;12.25;7.32;;;4.40;69.90;;;;;;4910816;28;20450;-68
2022/03/09 08:37:40;;;;;;;10.20;7.15;;;4.50;69.50;;;;;;4912604;28;20475;-68
2022/03/09 08:40:07;;;;;;;10.23;6.93;;;4.70;69.20;;;;;;4949699;28;20051;-68
2022/03/09 08:42:32;;;;;;;10.07;7.00;;;4.90;69.00;;;;;;4917589;28;20043;-68
2022/03/09 08:44:58;;;;;;;17.38;7.43;;;5.00;68.60;;;;;;4918122;28;20057;-68
2022/03/09 08:47:24;;;;;;;13.30;7.70;;;5.10;68.40;;;;;;4917639;28;20416;-69
2022/03/09 08:49:50;;;;;;;14.32;7.40;;;5.20;68.10;;;;;;4934209;28;20055;-68
2022/03/09 08:52:16;;;;;;;12.13;7.72;;;5.40;68.10;;;;;;4935682;28;20394;-68
2022/03/09 08:54:41;;;;;;;12.23;6.93;;;5.50;67.90;;;;;;4928437;28;20134;-69
2022/03/09 08:57:08;;;;;;;15.40;8.00;;;5.70;67.80;;;;;;4935494;28;20126;-67
2022/03/09 08:59:34;;;;;;;13.18;7.63;;;5.80;67.10;;;;;;4915198;28;20126;-67
2022/03/09 09:02:00;;;;;;;12.93;7.00;;;6.00;66.70;;;;;;4934238;28;20043;-67
2022/03/09 09:04:26;;;;;;;10.82;7.15;;;6.20;66.60;;;;;;4934269;28;20109;-67
2022/03/09 09:06:52;;;;;;;10.80;7.50;;;6.20;66.00;;;;;;4934438;28;20051;-67
2022/03/09 09:09:20;;;;;;;10.82;7.00;;;6.40;65.40;;;;;;4919170;28;20497;-67
2022/03/09 09:11:47;;;;;;;13.90;7.63;;;6.50;65.40;;;;;;4933166;28;20050;-68
2022/03/09 09:14:13;;;;;;;13.07;7.13;;;6.70;65.00;;;;;;4935491;28;20181;-67
2022/03/09 09:16:41;;;;;;;15.05;7.30;;;6.80;64.70;;;;;;4911674;28;20402;-67
2022/03/09 09:19:08;;;;;;;11.82;7.38;;;7.00;64.40;;;;;;4927665;28;20102;-67
2022/03/09 09:21:34;;;;;;;9.85;7.50;;;7.10;64.30;;;;;;4916365;28;20051;-67
2022/03/09 09:24:00;;;;;;;12.07;7.25;;;7.30;64.20;;;;;;4923085;28;20372;-67
2022/03/09 09:26:25;;;;;;;12.38;7.18;;;7.40;63.60;;;;;;4915921;28;20043;-67
2022/03/09 09:28:52;;;;;;;12.23;7.35;;;7.50;63.30;;;;;;4951211;28;20521;-67
2022/03/09 09:31:17;;;;;;;13.00;7.45;;;7.70;63.10;;;;;;4899931;28;23757;-67
2022/03/09 09:33:43;;;;;;;10.85;7.00;;;7.90;63.20;;;;;;4917629;28;20485;-68
2022/03/09 09:36:09;;;;;;;11.77;7.05;;;8.00;62.50;;;;;;4932975;28;20046;-67
2022/03/09 09:38:35;;;;;;;10.05;7.50;;;8.20;62.40;;;;;;4933991;28;20113;-68
2022/03/09 09:41:02;;;;;;;11.35;7.00;;;8.30;62.00;;;;;;4897583;28;20059;-67
2022/03/09 09:43:28;;;;;;;12.82;7.47;;;8.40;60.40;;;;;;4934417;28;20090;-67
2022/03/09 09:45:56;;;;;;;12.00;7.55;;;8.40;60.70;;;;;;4950433;28;20858;-68
2022/03/09 09:48:22;;;;;;;11.95;7.60;;;8.50;60.50;;;;;;4920939;28;20063;-67
2022/03/09 09:50:51;;;;;;;11.15;7.13;;;8.70;60.30;;;;;;4916453;28;20549;-68
2022/03/09 09:53:17;;;;;;;12.30;7.32;;;8.80;60.10;;;;;;4917614;29;20047;-68
2022/03/09 09:55:43;;;;;;;12.20;7.38;;;8.90;60.20;;;;;;4916620;28;20058;-68
2022/03/09 09:58:10;;;;;;;14.43;7.32;;;9.00;60.20;;;;;;4927950;28;20063;-68
2022/03/09 10:00:36;;;;;;;12.35;7.53;;;9.10;59.60;;;;;;4909507;28;20126;-68
2022/03/09 10:03:04;;;;;;;12.07;7.50;;;9.30;59.20;;;;;;4930546;28;20054;-68
2022/03/09 10:05:31;;;;;;;17.52;7.78;;;9.30;59.10;;;;;;4933497;28;20047;-68
2022/03/09 10:08:03;;;;;;;13.63;7.38;;;9.50;59.60;;;;;;4932111;28;20131;-68
2022/03/09 10:10:36;;;;;;;10.33;7.17;;;9.60;59.40;;;;;;4915791;28;20047;-68
2022/03/09 10:13:21;;;;;;;15.38;7.55;;;9.70;59.40;;;;;;4931008;28;20051;-68
2022/03/09 10:16:08;;;;;;;11.32;7.85;;;9.90;58.60;;;;;;4928951;28;20162;-68
2022/03/09 10:18:34;;;;;;;12.50;7.75;;;10.00;58.50;;;;;;4896884;28;21042;-68
2022/03/09 10:21:21;;;;;;;11.85;7.28;;;10.10;58.50;;;;;;4930411;28;20130;-68
2022/03/09 10:24:05;;;;;;;13.43;7.60;;;10.30;58.40;;;;;;4926957;28;20058;-69
2022/03/09 10:26:34;;;;;;;11.02;8.15;;;10.40;57.70;;;;;;4915471;28;20055;-68
2022/03/09 10:29:07;;;;;;;11.07;7.45;;;10.50;57.30;;;;;;4922735;28;20055;-68
2022/03/09 10:31:40;;;;;;;;;;;10.60;56.60;;;;;;4930339;28;20051;-68
2022/03/09 10:34:15;;;;;;;12.15;7.45;;;10.60;57.20;;;;;;4929861;28;19934;-68
2022/03/09 10:37:02;;;;;;;10.93;7.45;;;10.70;56.00;;;;;;4933117;28;20047;-68
2022/03/09 10:39:30;;;;;;;10.93;7.57;;;10.80;55.20;;;;;;4924124;28;20556;-69
2022/03/09 10:41:58;;;;;;;13.63;7.88;;;10.80;55.50;;;;;;4915000;28;20050;-69
2022/03/09 10:44:48;;;;;;;13.57;7.97;;;10.90;55.60;;;;;;4912959;28;20055;-69
2022/03/09 10:47:31;;;;;;;12.35;7.55;;;11.00;55.40;;;;;;4910872;29;20615;-68
2022/03/09 10:50:18;;;;;;;13.88;7.85;;;11.20;55.90;;;;;;4927637;28;20312;-68
2022/03/09 10:52:55;;;;;;;14.15;7.72;;;11.40;55.10;;;;;;4929194;28;20051;-68
2022/03/09 10:55:36;;;;;;;14.45;8.27;;;11.50;54.80;;;;;;4928017;28;20464;-69
2022/03/09 10:58:09;;;;;;;15.60;8.00;;;11.70;54.60;;;;;;4897358;28;20043;-69
2022/03/09 11:00:36;;;;;;;13.55;7.60;;;11.70;53.60;;;;;;4911277;28;20502;-68
2022/03/09 11:03:20;;;;;;;12.07;7.72;;;11.80;53.70;;;;;;4944413;28;20491;-68
2022/03/09 11:05:55;;;;;;;12.30;8.10;;;12.00;53.90;;;;;;4906702;28;20132;-68
2022/03/09 11:08:23;;;;;;;14.48;7.97;;;12.20;53.70;;;;;;4933067;28;20706;-68
2022/03/09 11:10:49;;;;;;;12.55;7.88;;;12.30;53.20;;;;;;4930022;28;20059;-68
2022/03/09 11:13:16;;;;;;;12.25;7.90;;;12.40;52.80;;;;;;4931622;28;20947;-69
2022/03/09 11:15:44;;;;;;;14.13;7.90;;;12.50;52.30;;;;;;4917206;28;20146;-68
2022/03/09 11:18:21;;;;;;;11.50;7.80;;;12.60;52.20;;;;;;4900137;28;20069;-68
2022/03/09 11:20:50;;;;;;;15.63;8.25;;;12.80;51.80;;;;;;4931858;28;20051;-68
2022/03/09 11:23:17;;;;;;;11.07;7.82;;;12.90;52.20;;;;;;4904156;28;20061;-68
2022/03/09 11:25:47;;;;;;;12.48;8.10;;;13.10;52.30;;;;;;4917102;28;20087;-68
2022/03/09 11:28:20;;;;;;;11.93;8.07;;;13.30;52.20;;;;;;4933290;28;20547;-68
2022/03/09 11:31:02;;;;;;;17.95;8.35;;;13.40;52.50;;;;;;4932439;28;20043;-69
2022/03/09 11:33:54;;;;;;;12.88;8.07;;;13.60;52.40;;;;;;4912886;28;20612;-68
2022/03/09 11:36:29;;;;;;;10.70;8.23;;;13.70;52.20;;;;;;4930055;28;20618;-69
2022/03/09 11:39:17;;;;;;;13.90;8.07;;;13.70;52.20;;;;;;4908513;28;20055;-69
2022/03/09 11:41:43;;;;;;;14.98;8.52;;;13.90;51.90;;;;;;4932131;28;20086;-68
2022/03/09 11:44:18;;;;;;;11.68;7.60;;;14.00;51.50;;;;;;4915300;29;20130;-68
2022/03/09 11:46:59;;;;;;;11.13;7.75;;;14.00;51.10;;;;;;4931079;28;20059;-69
2022/03/09 11:49:46;;;;;;;11.15;7.97;;;14.10;50.40;;;;;;4914878;28;20051;-69
2022/03/09 11:52:14;;;;;;;11.43;8.20;;;14.10;49.80;;;;;;4931973;28;20054;-68
2022/03/09 11:54:45;;;;;;;11.25;7.88;;;14.30;50.10;;;;;;4931822;28;20121;-68
2022/03/09 11:57:13;;;;;;;10.15;7.90;;;14.30;49.70;;;;;;4947662;28;20140;-68
2022/03/09 11:59:39;;;;;;;12.82;8.30;;;14.40;50.20;;;;;;4915412;28;20070;-68
2022/03/09 12:02:13;;;;;;;9.70;7.72;;;14.50;49.60;;;;;;4927338;28;20065;-68
2022/03/09 12:04:51;;;;;;;11.82;7.65;;;14.60;49.30;;;;;;4899274;28;20055;-69
2022/03/09 12:07:33;;;;;;;11.13;8.40;;;14.70;49.30;;;;;;4932396;28;20576;-68
2022/03/09 12:10:06;;;;;;;10.50;8.15;;;14.80;49.20;;;;;;4928303;28;21716;-68
2022/03/09 12:12:35;;;;;;;10.70;7.78;;;14.90;49.10;;;;;;4931951;28;20514;-68
2022/03/09 12:15:13;;;;;;;12.43;8.07;;;15.10;49.30;;;;;;4917342;28;20050;-69
2022/03/09 12:17:47;;;;;;;11.52;8.52;;;15.20;48.60;;;;;;4920851;28;20102;-67
2022/03/09 12:20:25;;;;;;;13.13;8.50;;;15.20;47.20;;;;;;4933555;28;20410;-68
2022/03/09 12:22:58;;;;;;;15.25;8.15;;;15.20;47.30;;;;;;4934992;28;20596;-68
2022/03/09 12:25:43;;;;;;;13.02;8.45;;;15.20;47.70;;;;;;4918865;28;20402;-68
2022/03/09 12:28:39;;;;;;;11.48;8.10;;;15.30;47.80;;;;;;4918366;28;20084;-67
2022/03/09 12:31:05;;;;;;;14.65;8.18;;;15.40;47.40;;;;;;4902124;28;20102;-68
2022/03/09 12:33:36;;;;;;;13.43;8.25;;;15.40;46.70;;;;;;4928477;28;20055;-67
2022/03/09 12:36:11;;;;;;;11.68;7.68;;;15.50;47.00;;;;;;4919009;28;23949;-67
2022/03/09 12:38:38;;;;;;;11.48;8.57;;;15.50;45.90;;;;;;4936232;28;20106;-67
2022/03/09 12:41:05;;;;;;;10.25;8.02;;;15.60;46.30;;;;;;4933462;28;20055;-68
2022/03/09 12:43:46;;;;;;;14.27;8.38;;;15.70;46.60;;;;;;4944048;28;20066;-68
2022/03/09 12:46:12;;;;;;;14.82;8.25;;;15.80;46.60;;;;;;4933824;28;20097;-68
2022/03/09 12:48:41;;;;;;;14.85;8.32;;;15.90;46.20;;;;;;4920184;28;20058;-67
2022/03/09 12:51:08;;;;;;;12.07;7.95;;;16.00;46.20;;;;;;4918588;28;20043;-68